createdAt,value
2019-04-16T00:02:38.983Z,12.87
2019-04-16T00:05:12.946Z,9.67
2019-04-16T00:08:19.394Z,9.50
2019-04-16T00:10:42.998Z,9.43
2019-04-16T00:13:13.540Z,8.10
2019-04-16T00:15:41.372Z,9.60
2019-04-16T00:18:09.353Z,9.00
2019-04-16T00:20:46.698Z,9.07
2019-04-16T00:23:20.404Z,12.53
2019-04-16T00:25:47.346Z,10.60
2019-04-16T00:28:14.254Z,8.57
2019-04-16T00:30:41.191Z,9.47
2019-04-16T00:33:10.705Z,10.37
2019-04-16T00:35:36.867Z,11.17
2019-04-16T00:38:03.857Z,11.17
2019-04-16T00:40:30.808Z,8.67
2019-04-16T00:42:58.105Z,8.70
2019-04-16T00:45:25.255Z,9.90
2019-04-16T00:47:52.227Z,9.20
2019-04-16T00:50:19.248Z,10.73
2019-04-16T00:52:46.110Z,9.37
2019-04-16T00:55:14.610Z,9.23
2019-04-16T00:57:41.694Z,10.13
2019-04-16T01:00:09.781Z,9.53
2019-04-16T01:02:36.734Z,8.93
2019-04-16T01:05:04.299Z,9.07
2019-04-16T01:07:31.546Z,9.90
2019-04-16T01:09:58.615Z,10.73
2019-04-16T01:12:25.654Z,8.73
2019-04-16T01:14:52.843Z,9.40
2019-04-16T01:17:19.825Z,9.70
2019-04-16T01:19:46.715Z,10.27
2019-04-16T01:22:16.064Z,8.70
2019-04-16T01:24:42.805Z,9.37
2019-04-16T01:27:09.908Z,9.07
2019-04-16T01:29:36.924Z,11.73
2019-04-16T01:32:22.217Z,9.87
2019-04-16T01:34:57.077Z,10.03
2019-04-16T01:37:58.459Z,11.93
2019-04-16T01:40:34.385Z,10.67
2019-04-16T01:43:01.347Z,12.37
2019-04-16T01:45:29.791Z,9.00
2019-04-16T01:47:57.290Z,8.93
2019-04-16T01:50:24.150Z,9.17
2019-04-16T01:52:51.416Z,11.10
2019-04-16T01:55:19.287Z,9.50
2019-04-16T01:57:46.145Z,9.60
2019-04-16T02:00:13.411Z,9.83
2019-04-16T02:02:40.401Z,10.13
2019-04-16T02:05:07.506Z,13.20
2019-04-16T02:07:34.389Z,9.37
2019-04-16T02:10:05.957Z,9.47
2019-04-16T02:12:30.258Z,15.70
2019-04-16T02:14:57.167Z,9.57
2019-04-16T02:17:26.679Z,9.17
2019-04-16T02:19:52.943Z,10.23
2019-04-16T02:22:19.819Z,10.10
2019-04-16T02:24:47.825Z,12.80
2019-04-16T02:27:16.570Z,10.00
2019-04-16T02:29:43.429Z,11.07
2019-04-16T02:32:10.267Z,10.93
2019-04-16T02:34:38.243Z,13.47
2019-04-16T02:37:05.555Z,10.43
2019-04-16T02:39:47.878Z,10.70
2019-04-16T02:42:01.378Z,9.30
2019-04-16T02:44:28.242Z,12.60
2019-04-16T02:46:55.236Z,9.20
2019-04-16T02:49:24.429Z,13.60
2019-04-16T02:51:56.498Z,10.37
2019-04-16T02:54:34.002Z,10.87
2019-04-16T02:57:18.593Z,9.80
2019-04-16T02:59:47.344Z,11.40
2019-04-16T03:02:32.834Z,9.63
2019-04-16T03:05:07.841Z,9.70
2019-04-16T03:07:35.722Z,10.33
2019-04-16T03:10:03.855Z,11.83
2019-04-16T03:12:32.387Z,10.63
2019-04-16T03:15:01.192Z,9.97
2019-04-16T03:17:34.562Z,10.33
2019-04-16T03:20:03.352Z,11.90
2019-04-16T03:22:33.471Z,16.47
2019-04-16T03:24:59.661Z,12.00
2019-04-16T03:27:26.531Z,14.27
2019-04-16T03:29:53.685Z,10.67
2019-04-16T03:32:20.735Z,10.00
2019-04-16T03:34:50.483Z,12.70
2019-04-16T03:37:17.158Z,10.17
2019-04-16T03:39:44.918Z,12.90
2019-04-16T03:42:13.433Z,13.47
2019-04-16T03:44:40.289Z,10.90
2019-04-16T03:47:07.157Z,11.87
2019-04-16T03:49:34.037Z,10.40
2019-04-16T03:52:00.890Z,9.13
2019-04-16T03:54:27.761Z,10.73
2019-04-16T03:56:54.879Z,11.63
2019-04-16T03:59:21.734Z,10.93
2019-04-16T04:01:48.613Z,9.83
2019-04-16T04:04:15.492Z,11.73
2019-04-16T04:06:42.365Z,11.07
2019-04-16T04:09:09.420Z,11.27
2019-04-16T04:11:40.835Z,9.77
2019-04-16T04:14:05.454Z,10.73
2019-04-16T04:16:33.552Z,11.43
2019-04-16T04:19:01.709Z,9.83
2019-04-16T04:21:28.578Z,12.13
2019-04-16T04:23:57.489Z,11.93
2019-04-16T04:26:24.458Z,9.93
2019-04-16T04:28:52.555Z,12.50
2019-04-16T04:31:19.573Z,10.73
2019-04-16T04:33:46.431Z,15.10
2019-04-16T04:36:13.309Z,9.80
2019-04-16T04:38:40.195Z,12.90
2019-04-16T04:41:07.878Z,11.70
2019-04-16T04:43:35.213Z,12.33
2019-04-16T04:46:02.287Z,10.70
2019-04-16T04:48:29.344Z,9.97
2019-04-16T04:50:56.589Z,10.47
2019-04-16T04:53:23.450Z,11.33
2019-04-16T04:55:50.713Z,11.27
2019-04-16T04:58:17.662Z,11.20
2019-04-16T05:00:44.631Z,12.47
2019-04-16T05:03:15.872Z,16.50
2019-04-16T05:05:47.725Z,16.00
2019-04-16T05:08:14.585Z,13.80
2019-04-16T05:10:43.276Z,13.27
2019-04-16T05:13:10.786Z,12.73
2019-04-16T05:15:37.645Z,14.70
2019-04-16T05:18:05.958Z,12.10
2019-04-16T05:20:33.144Z,13.70
2019-04-16T05:23:00.008Z,15.43
2019-04-16T05:25:33.254Z,13.53
2019-04-16T05:27:56.634Z,11.93
2019-04-16T05:30:23.605Z,10.57
2019-04-16T05:33:10.153Z,12.97
2019-04-16T05:35:38.554Z,13.93
2019-04-16T05:38:06.190Z,16.00
2019-04-16T05:40:35.210Z,17.50
2019-04-16T05:43:02.310Z,11.00
2019-04-16T05:45:29.367Z,10.83
2019-04-16T05:47:56.539Z,14.17
2019-04-16T05:50:28.732Z,13.93
2019-04-16T05:52:53.314Z,17.40
2019-04-16T05:55:31.696Z,11.10
2019-04-16T05:57:58.966Z,13.70
2019-04-16T06:00:34.402Z,12.30
2019-04-16T06:03:01.783Z,12.00
2019-04-16T06:05:29.350Z,14.83
2019-04-16T06:08:09.041Z,12.77
2019-04-16T06:10:37.553Z,17.00
2019-04-16T06:13:18.921Z,13.03
2019-04-16T06:16:05.940Z,11.80
2019-04-16T06:18:42.911Z,15.40
2019-04-16T06:21:26.839Z,14.87
2019-04-16T06:24:06.363Z,16.27
2019-04-16T06:27:08.329Z,16.30
2019-04-16T06:30:01.396Z,12.47
2019-04-16T06:32:45.819Z,13.83
2019-04-16T06:35:44.477Z,16.90
2019-04-16T06:38:15.432Z,12.00
2019-04-16T06:41:14.333Z,15.50
2019-04-16T06:43:48.365Z,14.07
2019-04-16T06:46:29.040Z,15.13
2019-04-16T06:49:21.832Z,12.07
2019-04-16T06:52:16.677Z,16.73
2019-04-16T06:54:56.338Z,13.10
2019-04-16T06:57:48.111Z,14.87
2019-04-16T07:00:50.908Z,13.37
2019-04-16T07:03:39.968Z,10.87
2019-04-16T07:06:35.945Z,18.07
2019-04-16T07:09:41.710Z,16.20
2019-04-16T07:12:20.355Z,19.60
2019-04-16T07:14:48.318Z,13.00
2019-04-16T07:17:18.074Z,14.70
2019-04-16T07:19:45.216Z,14.37
2019-04-16T07:22:12.490Z,13.20
2019-04-16T07:24:40.066Z,16.07
2019-04-16T07:27:07.719Z,12.90
2019-04-16T07:29:39.840Z,17.27
2019-04-16T07:32:33.336Z,12.37
2019-04-16T07:35:19.273Z,16.00
2019-04-16T07:38:15.278Z,12.60
2019-04-16T07:41:00.906Z,11.63
2019-04-16T07:43:46.814Z,12.50
2019-04-16T07:46:47.070Z,12.77
2019-04-16T07:49:45.903Z,13.50
2019-04-16T07:52:31.750Z,14.37
2019-04-16T07:55:17.442Z,13.17
2019-04-16T07:57:44.510Z,14.57
2019-04-16T08:00:13.245Z,15.63
2019-04-16T08:02:40.492Z,16.67
2019-04-16T08:05:09.139Z,19.33
2019-04-16T08:07:36.881Z,12.13
2019-04-16T08:10:04.596Z,16.73
2019-04-16T08:12:33.454Z,16.43
2019-04-16T08:15:12.553Z,11.97
2019-04-16T08:17:31.852Z,15.63
2019-04-16T08:19:59.038Z,14.03
2019-04-16T08:22:27.232Z,12.63
2019-04-16T08:25:02.503Z,13.73
2019-04-16T08:27:27.042Z,13.53
2019-04-16T08:29:54.303Z,13.60
2019-04-16T08:32:21.990Z,17.10
2019-04-16T08:34:48.980Z,13.00
2019-04-16T08:37:16.201Z,17.47
2019-04-16T08:39:43.211Z,15.53
2019-04-16T08:42:10.519Z,14.00
2019-04-16T08:44:37.686Z,17.80
2019-04-16T08:47:04.845Z,14.00
2019-04-16T08:49:31.894Z,13.20
2019-04-16T08:51:59.277Z,14.67
2019-04-16T08:54:26.555Z,14.33
2019-04-16T08:56:53.867Z,14.70
2019-04-16T08:59:20.894Z,16.97
2019-04-16T09:01:48.283Z,15.10
2019-04-16T09:04:16.193Z,15.77
2019-04-16T09:06:46.395Z,13.83
2019-04-16T09:09:24.781Z,12.10
2019-04-16T09:11:58.955Z,15.43
2019-04-16T09:14:28.680Z,13.03
2019-04-16T09:17:10.986Z,18.73
2019-04-16T09:19:40.277Z,17.93
2019-04-16T09:22:07.574Z,16.73
2019-04-16T09:24:41.367Z,14.23
2019-04-16T09:27:33.963Z,13.30
2019-04-16T09:30:18.580Z,13.57
2019-04-16T09:33:00.387Z,13.47
2019-04-16T09:35:38.506Z,12.90
2019-04-16T09:38:24.808Z,11.93
2019-04-16T09:41:06.513Z,15.13
2019-04-16T09:43:35.550Z,17.60
2019-04-16T09:46:10.229Z,15.93
2019-04-16T09:48:34.739Z,13.37
2019-04-16T09:51:01.423Z,15.63
2019-04-16T09:53:33.973Z,20.20
2019-04-16T09:56:00.295Z,17.43
2019-04-16T09:58:27.485Z,13.10
2019-04-16T10:01:02.627Z,13.83
2019-04-16T10:03:37.069Z,14.47
2019-04-16T10:06:05.731Z,15.53
2019-04-16T10:08:33.625Z,18.50
2019-04-16T10:11:05.579Z,16.03
2019-04-16T10:13:34.191Z,17.43
2019-04-16T10:15:59.770Z,18.33
2019-04-16T10:18:26.843Z,16.57
2019-04-16T10:20:54.069Z,15.93
2019-04-16T10:23:52.772Z,13.87
2019-04-16T10:26:20.213Z,25.03
2019-04-16T10:28:47.514Z,17.80
2019-04-16T10:31:17.234Z,15.40
2019-04-16T10:33:44.500Z,18.83
2019-04-16T10:36:11.744Z,20.07
2019-04-16T10:38:48.701Z,17.80
2019-04-16T10:41:19.969Z,19.73
2019-04-16T10:44:10.180Z,15.50
2019-04-16T10:46:48.484Z,16.50
2019-04-16T10:49:38.205Z,14.87
2019-04-16T10:52:23.551Z,14.67
2019-04-16T10:55:18.689Z,17.20
2019-04-16T10:58:02.817Z,15.47
2019-04-16T11:01:01.301Z,15.27
2019-04-16T11:03:39.474Z,15.73
2019-04-16T11:06:22.536Z,16.30
2019-04-16T11:08:49.497Z,19.97
2019-04-16T11:11:16.530Z,18.70
2019-04-16T11:13:58.895Z,17.60
2019-04-16T11:16:17.114Z,16.93
2019-04-16T11:18:44.448Z,19.93
2019-04-16T11:21:11.610Z,17.47
2019-04-16T11:23:38.740Z,18.50
2019-04-16T11:26:05.830Z,21.23
2019-04-16T11:28:32.954Z,16.73
2019-04-16T11:31:01.074Z,15.97
2019-04-16T11:33:28.572Z,16.67
2019-04-16T11:35:55.697Z,13.45
2019-04-16T11:38:22.681Z,11.05
2019-04-16T11:40:50.165Z,11.28
2019-04-16T11:43:17.380Z,22.42
2019-04-16T11:45:44.638Z,15.05
2019-04-16T11:48:11.655Z,11.45
2019-04-16T11:50:38.640Z,11.03
2019-04-16T11:53:05.878Z,11.43
2019-04-16T11:55:32.847Z,11.78
2019-04-16T11:57:59.844Z,11.10
2019-04-16T12:00:34.703Z,12.20
2019-04-16T12:03:08.876Z,10.88
2019-04-16T12:05:54.125Z,10.82
2019-04-16T12:08:46.446Z,11.10
2019-04-16T12:11:48.580Z,10.78
2019-04-16T12:14:30.775Z,10.90
2019-04-16T12:17:19.313Z,10.00
2019-04-16T12:20:06.277Z,9.55
2019-04-16T12:22:42.078Z,9.28
2019-04-16T12:25:29.307Z,8.88
2019-04-16T12:28:12.511Z,9.08
2019-04-16T12:31:16.645Z,10.48
2019-04-16T12:33:48.138Z,9.90
2019-04-16T12:36:41.178Z,8.78
2019-04-16T12:39:40.180Z,8.83
2019-04-16T12:42:17.391Z,12.00
2019-04-16T12:45:09.671Z,7.85
2019-04-16T12:47:44.170Z,9.13
2019-04-16T12:50:33.715Z,10.28
2019-04-16T12:53:08.856Z,7.08
2019-04-16T12:55:54.558Z,7.78
2019-04-16T12:58:37.317Z,9.80
2019-04-16T13:01:24.105Z,6.85
2019-04-16T13:03:59.063Z,7.70
2019-04-16T13:06:49.040Z,9.68
2019-04-16T13:09:23.681Z,6.45
2019-04-16T13:11:56.422Z,6.83
2019-04-16T13:14:39.378Z,5.75
2019-04-16T13:17:15.182Z,5.70
2019-04-16T13:19:57.326Z,6.80
2019-04-16T13:22:28.343Z,6.90
2019-04-16T13:25:17.473Z,7.05
2019-04-16T13:27:47.903Z,6.72
2019-04-16T13:30:14.285Z,7.30
2019-04-16T13:32:41.416Z,6.00
2019-04-16T13:35:08.794Z,6.65
2019-04-16T13:37:37.857Z,6.90
2019-04-16T13:40:13.140Z,7.80
2019-04-16T13:42:40.535Z,7.47
2019-04-16T13:45:31.176Z,8.20
2019-04-16T13:48:14.787Z,8.03
2019-04-16T13:50:39.848Z,10.45
2019-04-16T13:53:28.706Z,10.90
2019-04-16T13:56:17.672Z,10.72
2019-04-16T13:59:02.593Z,11.12
2019-04-16T14:01:32.921Z,11.40
2019-04-16T14:03:59.956Z,10.35
2019-04-16T14:06:27.214Z,8.97
2019-04-16T14:08:54.225Z,10.00
2019-04-16T14:11:21.209Z,10.33
2019-04-16T14:13:50.172Z,11.93
2019-04-16T14:16:17.126Z,11.63
2019-04-16T14:18:44.217Z,11.30
2019-04-16T14:21:11.127Z,11.13
2019-04-16T14:23:38.973Z,10.03
2019-04-16T14:26:06.062Z,11.20
2019-04-16T14:28:34.622Z,10.87
2019-04-16T14:31:02.063Z,11.83
2019-04-16T14:33:40.280Z,12.70
2019-04-16T14:36:07.060Z,11.77
2019-04-16T14:38:39.742Z,12.40
2019-04-16T14:41:07.685Z,10.80
2019-04-16T14:43:37.517Z,9.10
2019-04-16T14:46:08.404Z,8.57
2019-04-16T14:48:33.745Z,8.87
2019-04-16T14:51:08.779Z,13.33
2019-04-16T14:53:56.037Z,9.77
2019-04-16T14:56:29.151Z,9.23
2019-04-16T14:59:07.333Z,9.03
2019-04-16T15:01:54.005Z,8.03
2019-04-16T15:04:40.222Z,8.40
2019-04-16T15:07:20.090Z,11.03
2019-04-16T15:10:08.203Z,10.93
2019-04-16T15:12:41.110Z,9.83
2019-04-16T15:15:17.770Z,12.27
2019-04-16T15:17:48.626Z,13.53
2019-04-16T15:20:37.773Z,11.03
2019-04-16T15:23:24.122Z,9.57
2019-04-16T15:25:56.767Z,8.60
2019-04-16T15:28:53.184Z,9.20
2019-04-16T15:31:39.405Z,8.50
2019-04-16T15:34:26.369Z,10.53
2019-04-16T15:37:02.410Z,13.33
2019-04-16T15:39:36.300Z,9.70
2019-04-16T15:42:21.738Z,11.57
2019-04-16T15:44:57.407Z,8.33
2019-04-16T15:47:32.570Z,9.40
2019-04-16T15:50:05.915Z,9.00
2019-04-16T15:52:46.676Z,10.03
2019-04-16T15:55:32.337Z,12.27
2019-04-16T15:58:09.548Z,9.67
2019-04-16T16:00:54.290Z,8.57
2019-04-16T16:03:56.067Z,9.70
2019-04-16T16:06:24.630Z,11.83
2019-04-16T16:08:59.354Z,16.27
2019-04-16T16:11:35.123Z,9.00
2019-04-16T16:14:02.298Z,10.77
2019-04-16T16:16:41.802Z,12.10
2019-04-16T16:18:58.807Z,9.03
2019-04-16T16:21:25.902Z,10.97
2019-04-16T16:23:53.058Z,8.43
2019-04-16T16:26:20.250Z,9.10
2019-04-16T16:28:47.410Z,9.57
2019-04-16T16:31:14.530Z,8.67
2019-04-16T16:33:41.802Z,13.77
2019-04-16T16:36:09.206Z,9.27
2019-04-16T16:38:36.523Z,8.80
2019-04-16T16:41:03.734Z,8.10
2019-04-16T16:43:30.950Z,8.83
2019-04-16T16:46:29.878Z,7.90
2019-04-16T16:48:57.054Z,8.80
2019-04-16T16:51:24.171Z,8.50
2019-04-16T16:54:10.397Z,7.97
2019-04-16T16:56:42.831Z,7.97
2019-04-16T16:59:22.219Z,7.50
2019-04-16T17:02:00.017Z,8.10
2019-04-16T17:04:33.015Z,8.00
2019-04-16T17:07:00.953Z,8.13
2019-04-16T17:09:31.278Z,16.33
2019-04-16T17:11:58.542Z,10.03
2019-04-16T17:14:25.518Z,7.10
2019-04-16T17:16:52.855Z,7.43
2019-04-16T17:19:20.063Z,5.20
2019-04-16T17:21:47.115Z,5.17
2019-04-16T17:24:14.314Z,7.10
2019-04-16T17:26:41.519Z,5.37
2019-04-16T17:29:08.812Z,7.17
2019-04-16T17:31:36.248Z,4.93
2019-04-16T17:34:03.790Z,5.43
2019-04-16T17:36:31.006Z,5.20
2019-04-16T17:38:58.218Z,4.17
2019-04-16T17:41:30.418Z,6.37
2019-04-16T17:44:15.930Z,4.40
2019-04-16T17:47:01.972Z,3.83
2019-04-16T17:49:37.035Z,4.90
2019-04-16T17:52:27.823Z,4.23
2019-04-16T17:55:03.583Z,4.70
2019-04-16T17:57:34.907Z,4.90
2019-04-16T18:00:40.342Z,4.60
2019-04-16T18:03:26.038Z,4.43
2019-04-16T18:05:59.216Z,3.60
2019-04-16T18:08:46.062Z,4.20
2019-04-16T18:11:20.382Z,5.83
2019-04-16T18:13:57.931Z,4.97
2019-04-16T18:16:43.324Z,3.67
2019-04-16T18:19:42.950Z,2.53
2019-04-16T18:22:38.774Z,3.27
2019-04-16T18:25:22.058Z,2.33
2019-04-16T18:27:55.698Z,2.67
2019-04-16T18:30:39.495Z,2.83
2019-04-16T18:33:16.132Z,2.90
2019-04-16T18:36:20.860Z,3.40
2019-04-16T18:39:07.865Z,2.93
2019-04-16T18:41:40.175Z,4.93
2019-04-16T18:44:29.033Z,2.23
2019-04-16T18:47:05.956Z,2.57
2019-04-16T18:49:33.746Z,2.10
2019-04-16T18:52:01.014Z,3.37
2019-04-16T18:54:28.298Z,2.03
2019-04-16T18:56:55.574Z,4.03
2019-04-16T18:59:22.868Z,2.70
2019-04-16T19:01:53.978Z,4.33
2019-04-16T19:04:21.105Z,3.77
2019-04-16T19:06:48.383Z,2.10
2019-04-16T19:09:15.587Z,2.53
2019-04-16T19:11:43.095Z,2.50
2019-04-16T19:14:13.180Z,3.10
2019-04-16T19:16:39.954Z,2.40
2019-04-16T19:19:07.200Z,3.37
2019-04-16T19:21:34.431Z,3.30
2019-04-16T19:24:01.743Z,2.80
2019-04-16T19:26:30.370Z,4.07
2019-04-16T19:28:58.939Z,4.07
2019-04-16T19:31:26.410Z,2.10
2019-04-16T19:33:53.666Z,3.37
2019-04-16T19:36:24.730Z,2.13
2019-04-16T19:38:49.968Z,2.50
2019-04-16T19:41:17.075Z,3.57
2019-04-16T19:43:44.174Z,3.97
2019-04-16T19:46:15.347Z,3.23
2019-04-16T19:48:40.671Z,2.70
2019-04-16T19:51:08.913Z,2.20
2019-04-16T19:53:36.400Z,2.20
2019-04-16T19:56:03.603Z,2.33
2019-04-16T19:58:30.725Z,1.97
2019-04-16T20:00:59.126Z,1.90
2019-04-16T20:03:30.106Z,1.57
2019-04-16T20:05:56.229Z,2.43
2019-04-16T20:08:23.482Z,1.90
2019-04-16T20:10:50.553Z,1.93
2019-04-16T20:13:17.698Z,2.00
2019-04-16T20:15:45.153Z,2.53
2019-04-16T20:18:12.342Z,1.70
2019-04-16T20:20:39.793Z,1.70
2019-04-16T20:23:07.126Z,3.30
2019-04-16T20:25:35.081Z,1.90
2019-04-16T20:28:02.420Z,1.70
2019-04-16T20:30:30.299Z,1.70
2019-04-16T20:32:57.702Z,2.63
2019-04-16T20:35:24.957Z,1.97
2019-04-16T20:37:53.975Z,2.20
2019-04-16T20:40:21.256Z,2.60
2019-04-16T20:42:48.447Z,2.00
2019-04-16T20:45:16.706Z,2.27
2019-04-16T20:47:43.939Z,3.70
2019-04-16T20:50:11.259Z,1.97
2019-04-16T20:52:40.096Z,2.00
2019-04-16T20:55:08.738Z,2.20
2019-04-16T20:57:38.983Z,5.80
2019-04-16T21:00:10.260Z,2.50
2019-04-16T21:02:34.913Z,1.87
2019-04-16T21:05:04.389Z,2.80
2019-04-16T21:07:31.222Z,2.13
2019-04-16T21:10:02.516Z,2.70
2019-04-16T21:12:27.676Z,5.00
2019-04-16T21:14:55.459Z,4.93
2019-04-16T21:17:22.709Z,2.63
2019-04-16T21:19:49.922Z,2.47
2019-04-16T21:22:17.414Z,3.13
2019-04-16T21:24:45.118Z,3.00
2019-04-16T21:27:12.502Z,2.70
2019-04-16T21:29:39.795Z,3.60
2019-04-16T21:32:10.801Z,2.17
2019-04-16T21:34:43.611Z,2.33
2019-04-16T21:37:18.038Z,2.30
2019-04-16T21:39:52.628Z,1.73
2019-04-16T21:42:19.610Z,1.90
2019-04-16T21:44:46.814Z,2.27
2019-04-16T21:47:14.034Z,1.80
2019-04-16T21:49:45.044Z,2.07
2019-04-16T21:52:10.198Z,2.30
2019-04-16T21:54:37.946Z,1.87
2019-04-16T21:57:05.591Z,2.23
2019-04-16T21:59:32.874Z,2.13
2019-04-16T22:02:01.194Z,2.07
2019-04-16T22:04:28.547Z,1.90
2019-04-16T22:06:56.034Z,1.80
2019-04-16T22:09:23.317Z,2.23
2019-04-16T22:11:50.605Z,2.67
2019-04-16T22:14:22.014Z,2.53
2019-04-16T22:16:47.422Z,2.40
2019-04-16T22:19:15.012Z,4.17
2019-04-16T22:21:42.853Z,3.00
2019-04-16T22:24:11.069Z,2.73
2019-04-16T22:26:38.286Z,3.30
2019-04-16T22:29:05.538Z,3.70
2019-04-16T22:31:32.706Z,6.60
2019-04-16T22:34:00.128Z,3.63
2019-04-16T22:36:27.370Z,3.73
2019-04-16T22:39:00.430Z,3.23
2019-04-16T22:41:43.942Z,3.80
2019-04-16T22:44:22.702Z,3.90
2019-04-16T22:46:56.330Z,4.63
2019-04-16T22:49:23.895Z,4.60
2019-04-16T22:51:51.087Z,5.43
2019-04-16T22:54:20.692Z,5.97
2019-04-16T22:56:57.756Z,5.87
2019-04-16T22:59:25.818Z,5.53
2019-04-16T23:01:53.446Z,3.83
2019-04-16T23:04:22.770Z,3.40
2019-04-16T23:06:50.007Z,3.43
2019-04-16T23:09:18.012Z,3.13
2019-04-16T23:11:45.139Z,3.00
2019-04-16T23:14:12.327Z,2.90
2019-04-16T23:16:42.730Z,3.13
2019-04-16T23:19:08.530Z,3.13
2019-04-16T23:21:35.782Z,2.47
2019-04-16T23:24:03.299Z,3.37
2019-04-16T23:26:33.020Z,2.70
2019-04-16T23:28:59.581Z,2.70
2019-04-16T23:31:26.824Z,2.57
2019-04-16T23:33:54.083Z,3.43
2019-04-16T23:36:21.310Z,2.60
2019-04-16T23:38:48.494Z,3.17
2019-04-16T23:41:16.755Z,3.00
2019-04-16T23:43:56.850Z,4.43
2019-04-16T23:46:42.101Z,3.30
2019-04-16T23:49:43.836Z,3.07
2019-04-16T23:52:14.039Z,4.20
2019-04-16T23:54:48.131Z,2.97
2019-04-16T23:57:24.900Z,3.03
